createdAt,value
2023-05-05T00:02:43.050Z,100944.84
2023-05-05T00:12:44.538Z,100930.38
2023-05-05T00:22:45.889Z,100932.50
2023-05-05T00:32:48.640Z,100938.78
2023-05-05T00:42:53.502Z,100924.09
2023-05-05T00:53:04.757Z,100924.16
2023-05-05T01:03:06.259Z,100920.84
2023-05-05T01:13:13.850Z,100922.56
2023-05-05T01:23:33.430Z,100921.84
2023-05-05T01:33:41.868Z,100926.50
2023-05-05T01:43:46.006Z,100931.09
2023-05-05T01:53:48.115Z,100935.72
2023-05-05T02:03:51.248Z,100933.31
2023-05-05T02:13:54.598Z,100959.69
2023-05-05T02:23:56.722Z,100964.28
2023-05-05T02:34:01.796Z,100962.94
2023-05-05T02:44:05.075Z,100978.34
2023-05-05T02:54:06.866Z,100991.22
2023-05-05T03:04:15.515Z,100993.00
2023-05-05T03:14:21.072Z,100993.91
2023-05-05T03:24:22.576Z,100987.13
2023-05-05T03:34:23.920Z,100992.59
2023-05-05T03:44:25.430Z,100993.72
2023-05-05T03:54:26.815Z,100986.25
2023-05-05T04:04:28.374Z,100997.97
2023-05-05T04:14:29.757Z,101000.88
2023-05-05T04:24:31.281Z,101023.03
2023-05-05T04:34:32.853Z,101038.88
2023-05-05T04:44:34.779Z,101051.09
2023-05-05T04:54:37.024Z,101050.28
2023-05-05T05:04:38.488Z,101068.63
2023-05-05T05:14:40.168Z,101074.63
2023-05-05T05:24:42.130Z,101085.94
2023-05-05T05:34:43.517Z,101091.88
2023-05-05T05:44:45.014Z,101097.66
2023-05-05T05:54:46.490Z,101100.47
2023-05-05T06:04:48.263Z,101103.16
2023-05-05T06:14:49.633Z,101087.44
2023-05-05T06:24:51.154Z,101100.38
2023-05-05T06:34:52.582Z,101093.34
2023-05-05T06:44:53.953Z,101092.84
2023-05-05T06:54:55.403Z,101121.56
2023-05-05T07:04:57.952Z,101142.47
2023-05-05T07:14:59.503Z,101144.28
2023-05-05T07:25:02.390Z,101146.97
2023-05-05T07:35:03.934Z,101160.13
2023-05-05T07:45:06.747Z,101165.69
2023-05-05T07:55:08.220Z,101158.31
2023-05-05T08:05:10.081Z,101163.63
2023-05-05T08:15:11.873Z,101177.63
2023-05-05T08:25:14.085Z,101173.31
2023-05-05T08:35:15.647Z,101173.78
2023-05-05T08:45:17.232Z,101175.91
2023-05-05T08:55:26.627Z,101177.94
2023-05-05T09:05:28.491Z,101164.88
2023-05-05T09:15:30.095Z,101178.63
2023-05-05T09:25:31.745Z,101176.88
2023-05-05T09:35:55.887Z,101183.09
2023-05-05T09:46:07.898Z,101168.97
2023-05-05T09:56:10.408Z,101180.91
2023-05-05T10:06:12.026Z,101168.31
2023-05-05T10:16:13.791Z,101169.06
2023-05-05T10:26:18.489Z,101149.41
2023-05-05T10:36:20.292Z,101137.88
2023-05-05T10:46:21.927Z,101125.03
2023-05-05T10:56:32.433Z,101118.34
2023-05-05T11:06:33.900Z,101108.56
2023-05-05T11:16:47.685Z,101084.13
2023-05-05T11:26:51.616Z,101098.38
2023-05-05T11:36:57.547Z,101083.75
2023-05-05T11:47:02.711Z,101077.06
2023-05-05T11:57:08.600Z,101083.63
2023-05-05T12:07:15.846Z,101085.31
2023-05-05T12:17:21.287Z,101097.28
2023-05-05T12:27:23.350Z,101100.94
2023-05-05T12:37:26.146Z,101099.81
2023-05-05T12:47:32.651Z,101092.72
2023-05-05T12:57:34.075Z,101096.94
2023-05-05T13:07:35.472Z,101101.44
2023-05-05T13:17:37.136Z,101073.66
2023-05-05T13:27:38.619Z,101075.06
2023-05-05T13:37:39.979Z,101084.41
2023-05-05T13:47:42.053Z,101076.28
2023-05-05T13:57:43.582Z,101068.50
2023-05-05T14:07:46.215Z,101083.09
2023-05-05T14:17:47.635Z,101105.78
2023-05-05T14:27:49.241Z,101106.66
2023-05-05T14:37:50.920Z,101125.69
2023-05-05T14:47:52.326Z,101129.44
2023-05-05T14:57:54.748Z,101145.63
2023-05-05T15:07:56.320Z,101134.94
2023-05-05T15:17:57.697Z,101150.41
2023-05-05T15:28:00.862Z,101151.66
2023-05-05T15:38:02.690Z,101161.13
2023-05-05T15:48:04.372Z,101170.38
2023-05-05T15:58:05.899Z,101170.63
2023-05-05T16:08:09.870Z,101175.28
2023-05-05T16:18:11.312Z,101150.69
2023-05-05T16:28:12.678Z,101138.94
2023-05-05T16:38:14.169Z,101134.94
2023-05-05T16:48:17.445Z,101132.00
2023-05-05T16:58:20.126Z,101132.00
2023-05-05T17:08:21.693Z,101134.41
2023-05-05T17:18:25.726Z,101128.81
2023-05-05T17:28:27.545Z,101133.50
2023-05-05T17:38:28.975Z,101139.75
2023-05-05T17:48:30.630Z,101157.97
2023-05-05T17:58:32.173Z,101159.72
2023-05-05T18:08:33.524Z,101161.56
2023-05-05T18:18:35.011Z,101171.22
2023-05-05T18:28:37.211Z,101161.00
2023-05-05T18:38:38.710Z,101176.00
2023-05-05T18:48:40.187Z,101174.69
2023-05-05T18:58:41.721Z,101167.88
2023-05-05T19:08:45.144Z,101162.09
2023-05-05T19:18:46.608Z,101166.66
2023-05-05T19:28:48.039Z,101184.31
2023-05-05T19:38:49.472Z,101194.06
2023-05-05T19:48:50.989Z,101203.84
2023-05-05T19:58:53.106Z,101207.31
2023-05-05T20:08:55.467Z,101198.69
2023-05-05T20:18:56.855Z,101209.19
2023-05-05T20:28:58.204Z,101205.91
2023-05-05T20:38:59.605Z,101192.91
2023-05-05T20:49:00.944Z,101199.91
2023-05-05T20:59:03.938Z,101209.47
2023-05-05T21:09:05.547Z,101198.13
2023-05-05T21:19:06.920Z,101199.97
2023-05-05T21:29:08.345Z,101201.69
2023-05-05T21:39:09.923Z,101193.13
2023-05-05T21:49:18.027Z,101199.19
2023-05-05T21:59:19.594Z,101194.84
2023-05-05T22:09:21.078Z,101185.38
2023-05-05T22:19:22.554Z,101191.44
2023-05-05T22:29:25.012Z,101204.38
2023-05-05T22:39:26.946Z,101211.31
2023-05-05T22:49:28.699Z,101211.31
2023-05-05T22:59:30.208Z,101208.72
2023-05-05T23:09:31.780Z,101196.63
2023-05-05T23:19:33.293Z,101190.56
2023-05-05T23:29:34.826Z,101210.44
2023-05-05T23:39:36.380Z,101202.63
2023-05-05T23:49:37.865Z,101196.59
2023-05-05T23:59:39.431Z,101191.38
